Gargano — VSMW5 — position and weather

sailwx.info

Track history (hours):
 
Tides and Currents Weather Stations Pressure Air Temp Water Temp Dewpoint Dewpoint Depression Visibility Wind Speed Wind Dir Waves Ship Positions

Gargano

Last reported at 2017-Nov-17 16:09 UTC. Time now 2017-Nov-17 23:04 UTC.
Position N 55°22' E 013°09'.

Length 72 m; draft 5.3 m.

Type: Other ship. MMSI: 235362000.

Date/timePositionNaut miles runAvg speedWind from/ knotsBaromVisibWave heightAir tempDewpointWater temp
2017-Nov-17 16:09N 55°22' E 013°09'0 0.0
2017-Nov-17 15:57N 55°22' E 013°09'0 0.0
2017-Nov-17 15:18N 55°22' E 013°09'0 0.0
2017-Nov-17 11:51N 55°22' E 013°09'0 0.0
2017-Nov-17 10:45N 55°22' E 013°09'0 0.0
2017-Nov-17 10:15N 55°22' E 013°09'0 0.0
2017-Nov-17 08:51N 55°22' E 013°09'0 0.0
2017-Nov-16 20:45N 55°22' E 013°09'0 0.0
2017-Nov-15 22:17N 55°22' E 013°09'0 0.0
2017-Nov-15 19:41N 55°22' E 013°09'0 0.0
2017-Nov-15 12:02N 55°22' E 013°09'0 0.0
2017-Nov-15 09:38N 55°22' E 013°09'0 0.0
2017-Nov-15 09:14N 55°22' E 013°09'0 0.0
2017-Nov-15 08:02N 55°22' E 013°09'0 0.0
2017-Nov-15 07:50N 55°22' E 013°09'0 0.0
2017-Nov-15 06:59N 55°22' E 013°09'0 0.0
2017-Nov-15 00:31N 55°22' E 013°09'0 0.0
2017-Nov-14 23:19N 55°22' E 013°09'0 0.0
2017-Nov-14 21:54N 55°22' E 013°09'1 1.7
2017-Nov-14 21:30N 55°22' E 013°09'3 6.8
2017-Nov-14 21:00N 55°18' E 013°08'2 5.0
2017-Nov-14 20:30N 55°16' E 013°08'510.3
2017-Nov-14 20:00N 55°11' E 013°06'6 0.7
2017-Nov-14 10:46N 55°05' E 012°60'1 4.1
2017-Nov-14 10:27N 55°05' E 012°58'0 0.1
2017-Nov-14 09:59N 55°05' E 012°58'0 0.0
2017-Nov-14 09:18N 55°05' E 012°58'0 0.0
2017-Nov-14 08:48N 55°05' E 012°58'0 0.0
2017-Nov-14 08:29N 55°05' E 012°58'2 2.5
2017-Nov-14 07:48N 55°05' E 013°01'1 3.6
2017-Nov-14 07:24N 55°05' E 012°58'0 0.6
2017-Nov-14 06:59N 55°05' E 012°58'0 0.0
2017-Nov-14 06:29N 55°05' E 012°58'0 0.0
2017-Nov-14 06:00N 55°05' E 012°58'0 0.0
2017-Nov-14 05:30N 55°05' E 012°58'0 0.0
2017-Nov-14 04:59N 55°05' E 012°58'0 0.0
2017-Nov-14 04:29N 55°05' E 012°58'0 0.0
2017-Nov-14 04:00N 55°05' E 012°58'0 0.0
2017-Nov-14 03:30N 55°05' E 012°58'0 0.0
2017-Nov-14 02:59N 55°05' E 012°58'0 0.0
2017-Nov-14 02:30N 55°05' E 012°58'0 0.0
2017-Nov-14 02:00N 55°05' E 012°58'0 0.0
2017-Nov-14 01:30N 55°05' E 012°58'0 0.0
2017-Nov-14 01:00N 55°05' E 012°58'0 0.0
2017-Nov-14 00:30N 55°05' E 012°58'0 0.0
2017-Nov-13 23:59N 55°05' E 012°58'0 0.0
2017-Nov-13 23:30N 55°05' E 012°58'0 0.0
2017-Nov-13 23:00N 55°05' E 012°58'0 0.0
2017-Nov-13 22:29N 55°05' E 012°58'0 0.0
2017-Nov-13 22:00N 55°05' E 012°58'0 0.0
2017-Nov-13 02:00N 55°05' E 012°58'0 0.0
2017-Nov-13 01:30N 55°05' E 012°58'0 0.0
2017-Nov-13 01:00N 55°05' E 012°58'0 0.0
2017-Nov-13 00:30N 55°05' E 012°58'0 0.0
2017-Nov-13 00:00N 55°05' E 012°58'0 0.0
2017-Nov-12 23:30N 55°05' E 012°58'0 0.0
2017-Nov-12 23:00N 55°05' E 012°58'0 0.0
2017-Nov-12 22:30N 55°05' E 012°58'0 0.0
2017-Nov-12 21:59N 55°05' E 012°58'0 0.0
2017-Nov-12 21:30N 55°05' E 012°58'0 0.0
2017-Nov-12 21:00N 55°05' E 012°58'0 0.0
2017-Nov-12 20:30N 55°05' E 012°58'0 0.0
2017-Nov-12 19:57N 55°05' E 012°58'0 0.0
2017-Nov-12 19:30N 55°05' E 012°58'0 0.0
2017-Nov-12 18:59N 55°05' E 012°58'0 0.0
2017-Nov-12 18:28N 55°05' E 012°58'0 0.0
2017-Nov-12 17:58N 55°05' E 012°58'0 0.0
2017-Nov-12 17:29N 55°05' E 012°58'0 0.0
2017-Nov-12 17:00N 55°05' E 012°58'0 0.0
2017-Nov-12 16:30N 55°05' E 012°58'0 0.0
2017-Nov-12 16:00N 55°05' E 012°58'0 0.0
2017-Nov-12 15:30N 55°05' E 012°58'0 0.0
2017-Nov-12 14:59N 55°05' E 012°58'0 0.0
2017-Nov-12 14:18N 55°05' E 012°58'0 0.0
2017-Nov-12 13:44N 55°05' E 012°58'0 0.2
2017-Nov-12 13:16N 55°05' E 012°58'3 0.1
2017-Nov-11 13:14N 55°06' E 013°03'4 8.9
2017-Nov-11 12:49N 55°09' E 013°04'3 8.9
2017-Nov-11 12:30N 55°12' E 013°05'5 9.0
2017-Nov-11 12:00N 55°16' E 013°07'5 8.9
2017-Nov-11 11:30N 55°21' E 013°08'2 2.8
2017-Nov-11 10:57N 55°22' E 013°09'0 0.0
2017-Nov-11 10:27N 55°22' E 013°09'0 0.0
2017-Nov-11 10:00N 55°22' E 013°09'0 0.0
2017-Nov-11 08:57N 55°22' E 013°09'0 0.0
2017-Nov-11 05:24N 55°22' E 013°09'0 0.0
2017-Nov-11 05:00N 55°22' E 013°09'0 0.0
2017-Nov-11 04:30N 55°22' E 013°09'0 0.0
2017-Nov-11 03:54N 55°22' E 013°09'0 0.0
2017-Nov-11 03:30N 55°22' E 013°09'0 0.0
2017-Nov-11 02:18N 55°22' E 013°09'0 0.0
2017-Nov-11 01:48N 55°22' E 013°09'0 0.0
2017-Nov-11 01:24N 55°22' E 013°09'0 0.0
2017-Nov-11 00:51N 55°22' E 013°09'0 0.0
2017-Nov-11 00:27N 55°22' E 013°09'0 0.0
2017-Nov-10 23:57N 55°22' E 013°09'0 0.0
2017-Nov-10 23:27N 55°22' E 013°09'0 0.0
2017-Nov-10 22:54N 55°22' E 013°09'0 0.0
2017-Nov-10 22:03N 55°22' E 013°09'0 0.0
2017-Nov-10 21:48N 55°22' E 013°09'0 0.0
2017-Nov-10 19:09N 55°22' E 013°09'0 0.0
2017-Nov-10 18:54N 55°22' E 013°09'0 0.0
2017-Nov-10 18:27N 55°22' E 013°09'0 0.0
2017-Nov-10 18:00N 55°22' E 013°09'0 0.0
2017-Nov-10 17:24N 55°22' E 013°09'0 0.0
2017-Nov-10 16:54N 55°22' E 013°09'0 0.0
2017-Nov-10 16:03N 55°22' E 013°09'0 0.0
2017-Nov-10 14:51N 55°22' E 013°09'0 0.0
2017-Nov-10 14:30N 55°22' E 013°09'0 0.0
2017-Nov-10 14:00N 55°22' E 013°09'0 0.0
2017-Nov-10 13:21N 55°22' E 013°09'0 0.0
2017-Nov-10 12:57N 55°22' E 013°09'0 0.0
2017-Nov-10 12:18N 55°22' E 013°09'0 0.0
2017-Nov-10 11:57N 55°22' E 013°09'0 0.0
2017-Nov-10 11:27N 55°22' E 013°09'0 0.0
2017-Nov-10 10:21N 55°22' E 013°09'0 0.0
2017-Nov-10 09:35N 55°22' E 013°09'0 0.0
2017-Nov-10 09:05N 55°22' E 013°09'0 0.0
2017-Nov-10 08:47N 55°22' E 013°09'0 0.0
2017-Nov-10 07:59N 55°22' E 013°09'0 0.0
2017-Nov-10 06:56N 55°22' E 013°09'0 0.0
2017-Nov-10 06:26N 55°22' E 013°09'0 0.0
2017-Nov-10 05:41N 55°22' E 013°09'0 0.0
2017-Nov-10 05:23N 55°22' E 013°09'0 0.0
2017-Nov-10 04:56N 55°22' E 013°09'0 0.4
2017-Nov-10 04:30N 55°22' E 013°09'3 6.8
2017-Nov-10 04:00N 55°19' E 013°08'2 3.9
2017-Nov-10 03:30N 55°17' E 013°08'2 3.7
2017-Nov-10 03:00N 55°15' E 013°08'2 3.4
2017-Nov-10 02:30N 55°13' E 013°08'2 3.9
2017-Nov-10 02:01N 55°11' E 013°07'2 4.2
2017-Nov-10 01:30N 55°09' E 013°07'2 4.7
2017-Nov-10 01:00N 55°07' E 013°07'7 0.4
2017-Nov-09 08:28N 54°60' E 013°05'0 0.0
2017-Nov-09 07:51N 54°60' E 013°05'0 0.0
2017-Nov-09 07:11N 54°60' E 013°05'0 0.0
2017-Nov-09 06:08N 54°60' E 013°05'0 0.0
2017-Nov-09 05:41N 54°60' E 013°05'0 0.0
2017-Nov-08 23:37N 54°60' E 013°05'0 0.0
2017-Nov-08 23:19N 54°60' E 013°05'0 0.0
2017-Nov-08 22:51N 54°60' E 013°05'0 0.0
2017-Nov-08 22:27N 54°60' E 013°05'0 0.0
2017-Nov-08 22:00N 54°60' E 013°05'0 0.0
2017-Nov-08 21:30N 54°60' E 013°05'0 0.0
2017-Nov-08 21:00N 54°60' E 013°05'0 0.0
2017-Nov-08 20:30N 54°60' E 013°05'0 0.0
2017-Nov-08 19:53N 54°60' E 013°05'0 0.0
2017-Nov-08 19:31N 54°60' E 013°05'  
Track history (hours):
 
Tides and Currents Weather Stations Pressure Air Temp Water Temp Dewpoint Dewpoint Depression Visibility Wind Speed Wind Dir Waves Ship Positions

Gargano

Last reported at 2017-Nov-17 16:09 UTC. Time now 2017-Nov-17 23:04 UTC.
Position N 55°22' E 013°09'.

Length 72 m; draft 5.3 m.

Type: Other ship. MMSI: 235362000.

Date/timePositionNaut miles runAvg speedWind from/ knotsBaromVisibWave heightAir tempDewpointWater temp
2017-Nov-17 16:09N 55°22' E 013°09'0 0.0
2017-Nov-17 15:57N 55°22' E 013°09'0 0.0
2017-Nov-17 15:18N 55°22' E 013°09'0 0.0
2017-Nov-17 11:51N 55°22' E 013°09'0 0.0
2017-Nov-17 10:45N 55°22' E 013°09'0 0.0
2017-Nov-17 10:15N 55°22' E 013°09'0 0.0
2017-Nov-17 08:51N 55°22' E 013°09'0 0.0
2017-Nov-16 20:45N 55°22' E 013°09'0 0.0
2017-Nov-15 22:17N 55°22' E 013°09'0 0.0
2017-Nov-15 19:41N 55°22' E 013°09'0 0.0
2017-Nov-15 12:02N 55°22' E 013°09'0 0.0
2017-Nov-15 09:38N 55°22' E 013°09'0 0.0
2017-Nov-15 09:14N 55°22' E 013°09'0 0.0
2017-Nov-15 08:02N 55°22' E 013°09'0 0.0
2017-Nov-15 07:50N 55°22' E 013°09'0 0.0
2017-Nov-15 06:59N 55°22' E 013°09'0 0.0
2017-Nov-15 00:31N 55°22' E 013°09'0 0.0
2017-Nov-14 23:19N 55°22' E 013°09'0 0.0
2017-Nov-14 21:54N 55°22' E 013°09'1 1.7
2017-Nov-14 21:30N 55°22' E 013°09'3 6.8
2017-Nov-14 21:00N 55°18' E 013°08'2 5.0
2017-Nov-14 20:30N 55°16' E 013°08'510.3
2017-Nov-14 20:00N 55°11' E 013°06'6 0.7
2017-Nov-14 10:46N 55°05' E 012°60'1 4.1
2017-Nov-14 10:27N 55°05' E 012°58'0 0.1
2017-Nov-14 09:59N 55°05' E 012°58'0 0.0
2017-Nov-14 09:18N 55°05' E 012°58'0 0.0
2017-Nov-14 08:48N 55°05' E 012°58'0 0.0
2017-Nov-14 08:29N 55°05' E 012°58'2 2.5
2017-Nov-14 07:48N 55°05' E 013°01'1 3.6
2017-Nov-14 07:24N 55°05' E 012°58'0 0.6
2017-Nov-14 06:59N 55°05' E 012°58'0 0.0
2017-Nov-14 06:29N 55°05' E 012°58'0 0.0
2017-Nov-14 06:00N 55°05' E 012°58'0 0.0
2017-Nov-14 05:30N 55°05' E 012°58'0 0.0
2017-Nov-14 04:59N 55°05' E 012°58'0 0.0
2017-Nov-14 04:29N 55°05' E 012°58'0 0.0
2017-Nov-14 04:00N 55°05' E 012°58'0 0.0
2017-Nov-14 03:30N 55°05' E 012°58'0 0.0
2017-Nov-14 02:59N 55°05' E 012°58'0 0.0
2017-Nov-14 02:30N 55°05' E 012°58'0 0.0
2017-Nov-14 02:00N 55°05' E 012°58'0 0.0
2017-Nov-14 01:30N 55°05' E 012°58'0 0.0
2017-Nov-14 01:00N 55°05' E 012°58'0 0.0
2017-Nov-14 00:30N 55°05' E 012°58'0 0.0
2017-Nov-13 23:59N 55°05' E 012°58'0 0.0
2017-Nov-13 23:30N 55°05' E 012°58'0 0.0
2017-Nov-13 23:00N 55°05' E 012°58'0 0.0
2017-Nov-13 22:29N 55°05' E 012°58'0 0.0
2017-Nov-13 22:00N 55°05' E 012°58'0 0.0
2017-Nov-13 02:00N 55°05' E 012°58'0 0.0
2017-Nov-13 01:30N 55°05' E 012°58'0 0.0
2017-Nov-13 01:00N 55°05' E 012°58'0 0.0
2017-Nov-13 00:30N 55°05' E 012°58'0 0.0
2017-Nov-13 00:00N 55°05' E 012°58'0 0.0
2017-Nov-12 23:30N 55°05' E 012°58'0 0.0
2017-Nov-12 23:00N 55°05' E 012°58'0 0.0
2017-Nov-12 22:30N 55°05' E 012°58'0 0.0
2017-Nov-12 21:59N 55°05' E 012°58'0 0.0
2017-Nov-12 21:30N 55°05' E 012°58'0 0.0
2017-Nov-12 21:00N 55°05' E 012°58'0 0.0
2017-Nov-12 20:30N 55°05' E 012°58'0 0.0
2017-Nov-12 19:57N 55°05' E 012°58'0 0.0
2017-Nov-12 19:30N 55°05' E 012°58'0 0.0
2017-Nov-12 18:59N 55°05' E 012°58'0 0.0
2017-Nov-12 18:28N 55°05' E 012°58'0 0.0
2017-Nov-12 17:58N 55°05' E 012°58'0 0.0
2017-Nov-12 17:29N 55°05' E 012°58'0 0.0
2017-Nov-12 17:00N 55°05' E 012°58'0 0.0
2017-Nov-12 16:30N 55°05' E 012°58'0 0.0
2017-Nov-12 16:00N 55°05' E 012°58'0 0.0
2017-Nov-12 15:30N 55°05' E 012°58'0 0.0
2017-Nov-12 14:59N 55°05' E 012°58'0 0.0
2017-Nov-12 14:18N 55°05' E 012°58'0 0.0
2017-Nov-12 13:44N 55°05' E 012°58'0 0.2
2017-Nov-12 13:16N 55°05' E 012°58'3 0.1
2017-Nov-11 13:14N 55°06' E 013°03'4 8.9
2017-Nov-11 12:49N 55°09' E 013°04'3 8.9
2017-Nov-11 12:30N 55°12' E 013°05'5 9.0
2017-Nov-11 12:00N 55°16' E 013°07'5 8.9
2017-Nov-11 11:30N 55°21' E 013°08'2 2.8
2017-Nov-11 10:57N 55°22' E 013°09'0 0.0
2017-Nov-11 10:27N 55°22' E 013°09'0 0.0
2017-Nov-11 10:00N 55°22' E 013°09'0 0.0
2017-Nov-11 08:57N 55°22' E 013°09'0 0.0
2017-Nov-11 05:24N 55°22' E 013°09'0 0.0
2017-Nov-11 05:00N 55°22' E 013°09'0 0.0
2017-Nov-11 04:30N 55°22' E 013°09'0 0.0
2017-Nov-11 03:54N 55°22' E 013°09'0 0.0
2017-Nov-11 03:30N 55°22' E 013°09'0 0.0
2017-Nov-11 02:18N 55°22' E 013°09'0 0.0
2017-Nov-11 01:48N 55°22' E 013°09'0 0.0
2017-Nov-11 01:24N 55°22' E 013°09'0 0.0
2017-Nov-11 00:51N 55°22' E 013°09'0 0.0
2017-Nov-11 00:27N 55°22' E 013°09'0 0.0
2017-Nov-10 23:57N 55°22' E 013°09'0 0.0
2017-Nov-10 23:27N 55°22' E 013°09'0 0.0
2017-Nov-10 22:54N 55°22' E 013°09'0 0.0
2017-Nov-10 22:03N 55°22' E 013°09'0 0.0
2017-Nov-10 21:48N 55°22' E 013°09'0 0.0
2017-Nov-10 19:09N 55°22' E 013°09'0 0.0
2017-Nov-10 18:54N 55°22' E 013°09'0 0.0
2017-Nov-10 18:27N 55°22' E 013°09'0 0.0
2017-Nov-10 18:00N 55°22' E 013°09'0 0.0
2017-Nov-10 17:24N 55°22' E 013°09'0 0.0
2017-Nov-10 16:54N 55°22' E 013°09'0 0.0
2017-Nov-10 16:03N 55°22' E 013°09'0 0.0
2017-Nov-10 14:51N 55°22' E 013°09'0 0.0
2017-Nov-10 14:30N 55°22' E 013°09'0 0.0
2017-Nov-10 14:00N 55°22' E 013°09'0 0.0
2017-Nov-10 13:21N 55°22' E 013°09'0 0.0
2017-Nov-10 12:57N 55°22' E 013°09'0 0.0
2017-Nov-10 12:18N 55°22' E 013°09'0 0.0
2017-Nov-10 11:57N 55°22' E 013°09'0 0.0
2017-Nov-10 11:27N 55°22' E 013°09'0 0.0
2017-Nov-10 10:21N 55°22' E 013°09'0 0.0
2017-Nov-10 09:35N 55°22' E 013°09'0 0.0
2017-Nov-10 09:05N 55°22' E 013°09'0 0.0
2017-Nov-10 08:47N 55°22' E 013°09'0 0.0
2017-Nov-10 07:59N 55°22' E 013°09'0 0.0
2017-Nov-10 06:56N 55°22' E 013°09'0 0.0
2017-Nov-10 06:26N 55°22' E 013°09'0 0.0
2017-Nov-10 05:41N 55°22' E 013°09'0 0.0
2017-Nov-10 05:23N 55°22' E 013°09'0 0.0
2017-Nov-10 04:56N 55°22' E 013°09'0 0.4
2017-Nov-10 04:30N 55°22' E 013°09'3 6.8
2017-Nov-10 04:00N 55°19' E 013°08'2 3.9
2017-Nov-10 03:30N 55°17' E 013°08'2 3.7
2017-Nov-10 03:00N 55°15' E 013°08'2 3.4
2017-Nov-10 02:30N 55°13' E 013°08'2 3.9
2017-Nov-10 02:01N 55°11' E 013°07'2 4.2
2017-Nov-10 01:30N 55°09' E 013°07'2 4.7
2017-Nov-10 01:00N 55°07' E 013°07'7 0.4
2017-Nov-09 08:28N 54°60' E 013°05'0 0.0
2017-Nov-09 07:51N 54°60' E 013°05'0 0.0
2017-Nov-09 07:11N 54°60' E 013°05'0 0.0
2017-Nov-09 06:08N 54°60' E 013°05'0 0.0
2017-Nov-09 05:41N 54°60' E 013°05'0 0.0
2017-Nov-08 23:37N 54°60' E 013°05'0 0.0
2017-Nov-08 23:19N 54°60' E 013°05'0 0.0
2017-Nov-08 22:51N 54°60' E 013°05'0 0.0
2017-Nov-08 22:27N 54°60' E 013°05'0 0.0
2017-Nov-08 22:00N 54°60' E 013°05'0 0.0
2017-Nov-08 21:30N 54°60' E 013°05'0 0.0
2017-Nov-08 21:00N 54°60' E 013°05'0 0.0
2017-Nov-08 20:30N 54°60' E 013°05'0 0.0
2017-Nov-08 19:53N 54°60' E 013°05'0 0.0
2017-Nov-08 19:31N 54°60' E 013°05'  

Dump ship's entire track history